createdAt,value
2019-01-10T00:00:19.218Z,1.50
2019-01-10T00:00:56.920Z,1.50
2019-01-10T00:01:35.096Z,1.40
2019-01-10T00:02:12.902Z,1.40
2019-01-10T00:02:50.462Z,1.40
2019-01-10T00:03:28.328Z,1.40
2019-01-10T00:04:06.215Z,1.40
2019-01-10T00:04:43.284Z,1.30
2019-01-10T00:05:20.965Z,1.30
2019-01-10T00:05:58.956Z,1.30
2019-01-10T00:06:36.676Z,1.20
2019-01-10T00:07:14.575Z,1.20
2019-01-10T00:07:52.423Z,1.20
2019-01-10T00:08:29.954Z,1.20
2019-01-10T00:09:08.916Z,1.10
2019-01-10T00:09:47.176Z,1.10
2019-01-10T00:10:24.916Z,1.10
2019-01-10T00:11:02.950Z,1.10
2019-01-10T00:11:40.777Z,1.10
2019-01-10T00:12:18.601Z,1.10
2019-01-10T00:12:55.700Z,1.10
2019-01-10T00:13:33.446Z,1.10
2019-01-10T00:14:11.345Z,1.10
2019-01-10T00:14:49.232Z,1.10
2019-01-10T00:15:27.417Z,1.20
2019-01-10T00:16:05.884Z,1.20
2019-01-10T00:16:43.772Z,1.20
2019-01-10T00:17:21.914Z,1.20
2019-01-10T00:17:59.592Z,1.20
2019-01-10T00:18:37.448Z,1.20
2019-01-10T00:19:15.148Z,1.30
2019-01-10T00:19:52.600Z,1.30
2019-01-10T00:20:30.372Z,1.30
2019-01-10T00:21:07.556Z,1.30
2019-01-10T00:21:45.658Z,1.30
2019-01-10T00:22:23.028Z,1.30
2019-01-10T00:23:00.610Z,1.30
2019-01-10T00:23:38.148Z,1.20
2019-01-10T00:24:15.564Z,1.20
2019-01-10T00:24:53.040Z,1.20
2019-01-10T00:25:30.831Z,1.20
2019-01-10T00:26:08.645Z,1.10
2019-01-10T00:26:45.884Z,1.20
2019-01-10T00:27:23.369Z,1.10
2019-01-10T00:28:01.182Z,1.10
2019-01-10T00:28:38.638Z,1.10
2019-01-10T00:29:16.516Z,1.10
2019-01-10T00:29:53.892Z,1.00
2019-01-10T00:30:31.984Z,1.00
2019-01-10T00:31:09.304Z,1.00
2019-01-10T00:31:46.284Z,1.00
2019-01-10T00:32:23.714Z,1.00
2019-01-10T00:33:01.728Z,1.00
2019-01-10T00:33:39.716Z,0.90
2019-01-10T00:34:17.108Z,0.90
2019-01-10T00:34:55.084Z,0.90
2019-01-10T00:35:32.438Z,0.90
2019-01-10T00:36:10.010Z,0.90
2019-01-10T00:36:47.385Z,0.90
2019-01-10T00:37:25.106Z,0.90
2019-01-10T00:38:02.184Z,0.90
2019-01-10T00:38:39.368Z,0.90
2019-01-10T00:39:16.890Z,0.90
2019-01-10T00:39:54.630Z,1.00
2019-01-10T00:40:32.597Z,1.00
2019-01-10T00:41:10.458Z,1.00
2019-01-10T00:41:47.824Z,0.90
2019-01-10T00:42:25.544Z,0.90
2019-01-10T00:43:03.046Z,1.00
2019-01-10T00:43:40.875Z,0.90
2019-01-10T00:44:18.970Z,0.90
2019-01-10T00:44:56.694Z,0.90
2019-01-10T00:45:34.702Z,0.90
2019-01-10T00:46:12.808Z,0.90
2019-01-10T00:46:49.840Z,0.80
2019-01-10T00:47:27.512Z,0.80
2019-01-10T00:48:05.340Z,0.80
2019-01-10T00:48:43.006Z,0.80
2019-01-10T00:49:20.753Z,0.80
2019-01-10T00:49:58.540Z,0.80
2019-01-10T00:50:36.576Z,0.80
2019-01-10T00:51:14.592Z,0.80
2019-01-10T00:51:52.340Z,0.80
2019-01-10T00:52:29.936Z,0.80
2019-01-10T00:53:07.413Z,0.80
2019-01-10T00:53:45.035Z,0.90
2019-01-10T00:54:22.952Z,0.90
2019-01-10T00:55:00.547Z,0.90
2019-01-10T00:55:38.308Z,0.90
2019-01-10T00:56:16.084Z,0.90
2019-01-10T00:56:53.564Z,0.90
2019-01-10T00:57:30.676Z,0.90
2019-01-10T00:58:08.337Z,0.90
2019-01-10T00:58:45.384Z,0.90
2019-01-10T00:59:23.172Z,0.90
2019-01-10T01:00:00.888Z,0.90
2019-01-10T01:00:38.332Z,0.90
2019-01-10T01:01:16.221Z,0.90
2019-01-10T01:01:54.025Z,0.90
2019-01-10T01:02:31.080Z,0.90
2019-01-10T01:03:08.196Z,0.90
2019-01-10T01:03:45.989Z,0.90
2019-01-10T01:04:23.818Z,0.90
2019-01-10T01:05:01.300Z,0.90
2019-01-10T01:05:38.787Z,0.90
2019-01-10T01:06:16.601Z,0.90
2019-01-10T01:06:54.246Z,1.00
2019-01-10T01:07:31.810Z,0.90
2019-01-10T01:08:09.001Z,1.00
2019-01-10T01:08:46.716Z,1.00
2019-01-10T01:09:24.692Z,1.00
2019-01-10T01:10:02.092Z,1.00
2019-01-10T01:10:39.836Z,1.00
2019-01-10T01:11:17.526Z,1.00
2019-01-10T01:11:55.308Z,1.00
2019-01-10T01:12:32.373Z,1.00
2019-01-10T01:13:09.852Z,1.00
2019-01-10T01:13:47.563Z,1.00
2019-01-10T01:14:25.126Z,1.00
2019-01-10T01:15:02.708Z,1.00
2019-01-10T01:15:40.764Z,1.00
2019-01-10T01:16:18.596Z,1.00
2019-01-10T01:16:56.724Z,1.00
2019-01-10T01:17:34.446Z,1.00
2019-01-10T01:18:12.216Z,1.00
2019-01-10T01:18:50.148Z,1.00
2019-01-10T01:19:27.818Z,1.00
2019-01-10T01:20:06.283Z,1.00
2019-01-10T01:20:43.759Z,1.00
2019-01-10T01:21:20.522Z,1.00
2019-01-10T01:21:58.582Z,0.90
2019-01-10T01:22:35.696Z,1.00
2019-01-10T01:23:13.744Z,0.90
2019-01-10T01:23:51.394Z,1.00
2019-01-10T01:24:29.228Z,1.00
2019-01-10T01:25:07.246Z,0.90
2019-01-10T01:25:44.438Z,0.90
2019-01-10T01:26:22.552Z,0.90
2019-01-10T01:27:00.018Z,0.90
2019-01-10T01:27:37.108Z,0.90
2019-01-10T01:28:15.268Z,1.00
2019-01-10T01:28:53.181Z,0.90
2019-01-10T01:29:31.368Z,0.90
2019-01-10T01:30:12.581Z,1.00
2019-01-10T01:30:50.418Z,0.90
2019-01-10T01:31:28.136Z,1.00
2019-01-10T01:32:05.798Z,1.00
2019-01-10T01:32:43.982Z,1.00
2019-01-10T01:33:21.917Z,1.00
2019-01-10T01:33:59.914Z,1.00
2019-01-10T01:34:37.452Z,1.10
2019-01-10T01:35:17.832Z,1.10
2019-01-10T01:35:55.748Z,1.10
2019-01-10T01:36:33.506Z,1.10
2019-01-10T01:37:11.605Z,1.10
2019-01-10T01:37:49.254Z,1.10
2019-01-10T01:38:26.981Z,1.10
2019-01-10T01:39:06.725Z,1.10
2019-01-10T01:39:44.477Z,1.10
2019-01-10T01:40:23.083Z,1.10
2019-01-10T01:41:00.983Z,1.10
2019-01-10T01:41:38.421Z,1.10
2019-01-10T01:42:16.549Z,1.10
2019-01-10T01:42:54.256Z,1.10
2019-01-10T01:43:32.324Z,1.10
2019-01-10T01:44:09.770Z,1.10
2019-01-10T01:44:47.760Z,1.10
2019-01-10T01:45:25.243Z,1.10
2019-01-10T01:46:03.170Z,1.00
2019-01-10T01:46:41.266Z,1.00
2019-01-10T01:47:18.100Z,1.00
2019-01-10T01:47:55.356Z,1.00
2019-01-10T01:48:32.636Z,1.00
2019-01-10T01:49:10.434Z,1.00
2019-01-10T01:49:48.284Z,1.00
2019-01-10T01:50:26.418Z,1.00
2019-01-10T01:51:04.760Z,1.00
2019-01-10T01:51:42.180Z,1.00
2019-01-10T01:52:19.965Z,1.00
2019-01-10T01:52:57.706Z,1.00
2019-01-10T01:53:35.455Z,1.00
2019-01-10T01:54:12.708Z,1.00
2019-01-10T01:54:50.700Z,1.10
2019-01-10T01:55:28.784Z,1.10
2019-01-10T01:56:06.804Z,1.10
2019-01-10T01:56:44.776Z,1.10
2019-01-10T01:57:22.550Z,1.10
2019-01-10T01:58:00.141Z,1.20
2019-01-10T01:58:37.717Z,1.20
2019-01-10T01:59:15.217Z,1.10
2019-01-10T01:59:52.672Z,1.10
2019-01-10T02:00:30.291Z,1.20
2019-01-10T02:01:07.940Z,1.10
2019-01-10T02:01:46.081Z,1.10
2019-01-10T02:02:23.621Z,1.10
2019-01-10T02:03:01.296Z,1.10
2019-01-10T02:03:39.102Z,1.10
2019-01-10T02:04:16.683Z,1.10
2019-01-10T02:04:54.700Z,1.10
2019-01-10T02:05:31.824Z,1.10
2019-01-10T02:06:09.764Z,1.10
2019-01-10T02:06:47.382Z,1.10
2019-01-10T02:07:24.976Z,1.10
2019-01-10T02:08:03.049Z,1.00
2019-01-10T02:08:40.506Z,1.00
2019-01-10T02:09:18.232Z,1.00
2019-01-10T02:09:55.716Z,1.00
2019-01-10T02:10:33.600Z,1.00
2019-01-10T02:11:11.608Z,1.10
2019-01-10T02:11:49.553Z,1.10
2019-01-10T02:12:27.836Z,1.10
2019-01-10T02:13:05.736Z,1.10
2019-01-10T02:13:43.549Z,1.10
2019-01-10T02:14:21.592Z,1.10
2019-01-10T02:14:59.232Z,1.10
2019-01-10T02:15:37.188Z,1.10
2019-01-10T02:16:15.346Z,1.10
2019-01-10T02:16:53.319Z,1.10
2019-01-10T02:17:31.309Z,1.10
2019-01-10T02:18:09.414Z,1.10
2019-01-10T02:18:47.165Z,1.10
2019-01-10T02:19:25.039Z,1.10
2019-01-10T02:20:03.693Z,1.10
2019-01-10T02:20:41.527Z,1.10
2019-01-10T02:21:19.341Z,1.10
2019-01-10T02:21:56.816Z,1.10
2019-01-10T02:22:34.403Z,1.10
2019-01-10T02:23:12.668Z,1.10
2019-01-10T02:23:50.073Z,1.10
2019-01-10T02:24:27.862Z,1.10
2019-01-10T02:25:07.457Z,1.10
2019-01-10T02:25:44.913Z,1.10
2019-01-10T02:26:22.958Z,1.10
2019-01-10T02:27:00.644Z,1.10
2019-01-10T02:27:38.734Z,1.10
2019-01-10T02:28:16.513Z,1.10
2019-01-10T02:28:54.096Z,1.10
2019-01-10T02:29:31.920Z,1.10
2019-01-10T02:30:12.075Z,1.10
2019-01-10T02:30:49.793Z,1.10
2019-01-10T02:31:27.581Z,1.10
2019-01-10T02:32:05.197Z,1.10
2019-01-10T02:32:42.476Z,1.10
2019-01-10T02:33:20.101Z,1.10
2019-01-10T02:33:57.634Z,1.10
2019-01-10T02:34:34.803Z,1.10
2019-01-10T02:35:13.028Z,1.10
2019-01-10T02:35:50.901Z,1.10
2019-01-10T02:36:29.036Z,1.10
2019-01-10T02:37:06.683Z,1.20
2019-01-10T02:37:44.640Z,1.20
2019-01-10T02:38:22.369Z,1.20
2019-01-10T02:39:00.314Z,1.10
2019-01-10T02:39:38.216Z,1.10
2019-01-10T02:40:16.194Z,1.20
2019-01-10T02:40:54.212Z,1.20
2019-01-10T02:41:32.000Z,1.20
2019-01-10T02:42:09.572Z,1.20
2019-01-10T02:42:47.351Z,1.20
2019-01-10T02:43:26.457Z,1.10
2019-01-10T02:44:05.126Z,1.10
2019-01-10T02:44:42.661Z,1.10
2019-01-10T02:45:20.525Z,1.10
2019-01-10T02:45:58.312Z,1.10
2019-01-10T02:46:35.704Z,1.10
2019-01-10T02:47:13.702Z,1.10
2019-01-10T02:47:51.360Z,1.10
2019-01-10T02:48:29.449Z,1.10
2019-01-10T02:49:07.361Z,1.10
2019-01-10T02:49:44.925Z,1.20
2019-01-10T02:50:23.801Z,1.20
2019-01-10T02:51:01.448Z,1.20
2019-01-10T02:51:39.001Z,1.20
2019-01-10T02:52:16.946Z,1.20
2019-01-10T02:52:54.778Z,1.10
2019-01-10T02:53:32.500Z,1.20
2019-01-10T02:54:09.885Z,1.10
2019-01-10T02:54:47.646Z,1.10
2019-01-10T02:55:25.908Z,1.10
2019-01-10T02:56:03.858Z,1.10
2019-01-10T02:56:41.942Z,1.10
2019-01-10T02:57:19.893Z,1.10
2019-01-10T02:57:57.449Z,1.10
2019-01-10T02:58:34.848Z,1.10
2019-01-10T02:59:11.923Z,1.10
2019-01-10T02:59:49.717Z,1.10
2019-01-10T03:00:27.405Z,1.10
2019-01-10T03:01:04.919Z,1.10
2019-01-10T03:01:42.733Z,1.10
2019-01-10T03:02:20.565Z,1.00
2019-01-10T03:02:57.730Z,1.00
2019-01-10T03:03:35.820Z,1.10
2019-01-10T03:04:13.678Z,1.10
2019-01-10T03:04:51.289Z,1.10
2019-01-10T03:05:29.115Z,1.00
2019-01-10T03:06:07.495Z,1.00
2019-01-10T03:06:45.387Z,1.00
2019-01-10T03:07:22.935Z,1.00
2019-01-10T03:08:00.337Z,1.00
2019-01-10T03:08:38.069Z,1.00
2019-01-10T03:09:15.481Z,1.00
2019-01-10T03:09:53.369Z,1.00
2019-01-10T03:10:31.590Z,1.00
2019-01-10T03:11:09.687Z,1.00
2019-01-10T03:11:47.137Z,1.00
2019-01-10T03:12:24.865Z,1.00
2019-01-10T03:13:02.503Z,1.00
2019-01-10T03:13:39.983Z,1.00
2019-01-10T03:14:17.458Z,1.00
2019-01-10T03:14:54.666Z,1.00
2019-01-10T03:15:32.100Z,1.00
2019-01-10T03:16:09.337Z,1.00
2019-01-10T03:16:47.096Z,1.00
2019-01-10T03:17:24.879Z,1.10
2019-01-10T03:18:02.550Z,1.00
2019-01-10T03:18:39.715Z,1.10
2019-01-10T03:19:17.601Z,1.10
2019-01-10T03:19:55.129Z,1.10
2019-01-10T03:20:32.561Z,1.10
2019-01-10T03:21:10.147Z,1.10
2019-01-10T03:21:48.377Z,1.10
2019-01-10T03:22:26.250Z,1.10
2019-01-10T03:23:04.357Z,1.10
2019-01-10T03:23:41.937Z,1.10
2019-01-10T03:24:19.618Z,1.10
2019-01-10T03:24:57.425Z,1.10
2019-01-10T03:25:35.261Z,1.10
2019-01-10T03:26:12.909Z,1.10
2019-01-10T03:26:50.413Z,1.10
2019-01-10T03:27:28.312Z,1.00
2019-01-10T03:28:05.801Z,1.00
2019-01-10T03:28:43.574Z,1.00
2019-01-10T03:29:21.149Z,1.10
2019-01-10T03:29:59.293Z,1.00
2019-01-10T03:30:37.106Z,1.00
2019-01-10T03:31:14.869Z,1.00
2019-01-10T03:31:52.545Z,1.00
2019-01-10T03:32:30.517Z,1.00
2019-01-10T03:33:08.248Z,1.00
2019-01-10T03:33:45.747Z,1.10
2019-01-10T03:34:23.764Z,1.10
2019-01-10T03:35:01.774Z,1.10
2019-01-10T03:35:39.568Z,1.10
2019-01-10T03:36:17.558Z,1.10
2019-01-10T03:36:55.317Z,1.10
2019-01-10T03:37:33.197Z,1.10
2019-01-10T03:38:10.957Z,1.10
2019-01-10T03:38:48.580Z,1.10
2019-01-10T03:39:26.589Z,1.10
2019-01-10T03:40:04.849Z,1.10
2019-01-10T03:40:43.035Z,1.10
2019-01-10T03:41:20.862Z,1.10
2019-01-10T03:41:58.306Z,1.20
2019-01-10T03:42:35.327Z,1.20
2019-01-10T03:43:13.091Z,1.20
2019-01-10T03:43:51.044Z,1.20
2019-01-10T03:44:34.086Z,1.20
2019-01-10T03:45:10.248Z,1.20
2019-01-10T03:45:47.758Z,1.10
2019-01-10T03:46:25.637Z,1.10
2019-01-10T03:47:03.861Z,1.10
2019-01-10T03:47:41.663Z,1.10
2019-01-10T03:48:19.406Z,1.10
2019-01-10T03:48:57.068Z,1.10
2019-01-10T03:49:34.846Z,1.10
2019-01-10T03:50:13.875Z,1.10
2019-01-10T03:50:51.247Z,1.10
2019-01-10T03:51:28.036Z,1.10
2019-01-10T03:52:06.265Z,1.10
2019-01-10T03:52:44.031Z,1.10
2019-01-10T03:53:22.015Z,1.10
2019-01-10T03:53:59.916Z,1.10
2019-01-10T03:54:37.649Z,1.20
2019-01-10T03:55:15.392Z,1.10
2019-01-10T03:55:52.511Z,1.10
2019-01-10T03:56:29.933Z,1.10
2019-01-10T03:57:07.826Z,1.10
2019-01-10T03:57:45.163Z,1.10
2019-01-10T03:58:22.317Z,1.10
2019-01-10T03:59:00.083Z,1.10
2019-01-10T03:59:37.625Z,1.10
2019-01-10T04:00:20.521Z,1.00
2019-01-10T04:00:57.966Z,1.00
2019-01-10T04:01:35.627Z,1.00
2019-01-10T04:02:13.186Z,1.00
2019-01-10T04:02:51.061Z,1.00
2019-01-10T04:03:28.805Z,1.00
2019-01-10T04:04:06.365Z,1.00
2019-01-10T04:04:44.242Z,1.00
2019-01-10T04:05:22.183Z,1.00
2019-01-10T04:06:00.251Z,1.00
2019-01-10T04:06:39.725Z,1.00
2019-01-10T04:07:17.327Z,1.00
2019-01-10T04:07:55.098Z,1.00
2019-01-10T04:08:32.481Z,1.10
2019-01-10T04:09:10.482Z,1.10
2019-01-10T04:09:47.535Z,1.10
2019-01-10T04:10:25.442Z,1.00
2019-01-10T04:11:02.609Z,1.00
2019-01-10T04:11:40.327Z,1.00
2019-01-10T04:12:18.077Z,1.00
2019-01-10T04:12:55.352Z,1.00
2019-01-10T04:13:33.241Z,1.00
2019-01-10T04:14:11.051Z,1.00
2019-01-10T04:14:49.003Z,1.00
2019-01-10T04:15:27.014Z,1.00
2019-01-10T04:16:04.204Z,1.00
2019-01-10T04:16:41.911Z,1.00
2019-01-10T04:17:19.339Z,1.00
2019-01-10T04:17:56.947Z,1.00
2019-01-10T04:18:34.590Z,1.10
2019-01-10T04:19:12.291Z,1.00
2019-01-10T04:19:49.962Z,1.10
2019-01-10T04:20:27.849Z,1.00
2019-01-10T04:21:05.451Z,1.00
2019-01-10T04:21:42.903Z,1.00
2019-01-10T04:22:20.878Z,1.10
2019-01-10T04:22:58.384Z,1.10
2019-01-10T04:23:36.280Z,1.10
2019-01-10T04:24:14.331Z,1.00
2019-01-10T04:24:52.364Z,1.00
2019-01-10T04:25:30.246Z,1.00
2019-01-10T04:26:07.841Z,1.00
2019-01-10T04:26:45.537Z,1.10
2019-01-10T04:27:23.218Z,1.10
2019-01-10T04:28:01.159Z,1.10
2019-01-10T04:28:38.917Z,1.10
2019-01-10T04:29:16.690Z,1.10
2019-01-10T04:29:54.155Z,1.10
2019-01-10T04:30:31.509Z,1.10
2019-01-10T04:31:09.265Z,1.10
2019-01-10T04:31:47.046Z,1.10
2019-01-10T04:32:24.562Z,1.10
2019-01-10T04:33:01.629Z,1.10
2019-01-10T04:33:39.423Z,1.10
2019-01-10T04:34:16.997Z,1.20
2019-01-10T04:34:54.169Z,1.10
2019-01-10T04:35:32.189Z,1.10
2019-01-10T04:36:09.866Z,1.20
2019-01-10T04:36:47.863Z,1.20
2019-01-10T04:37:24.523Z,1.10
2019-01-10T04:38:01.864Z,1.10
2019-01-10T04:38:39.555Z,1.10
2019-01-10T04:39:17.242Z,1.10
2019-01-10T04:39:55.821Z,1.10
2019-01-10T04:40:33.961Z,1.10
2019-01-10T04:41:11.932Z,1.10
2019-01-10T04:41:49.639Z,1.00
2019-01-10T04:42:27.320Z,1.10
2019-01-10T04:43:05.191Z,1.00
2019-01-10T04:43:43.077Z,1.00
2019-01-10T04:44:20.775Z,1.00
2019-01-10T04:44:58.226Z,1.00
2019-01-10T04:45:35.641Z,1.00
2019-01-10T04:46:13.085Z,1.00
2019-01-10T04:46:50.691Z,1.00
2019-01-10T04:47:28.681Z,1.00
2019-01-10T04:48:06.246Z,1.00
2019-01-10T04:48:44.027Z,1.00
2019-01-10T04:49:21.703Z,1.00
2019-01-10T04:49:59.660Z,1.00
2019-01-10T04:50:37.545Z,1.10
2019-01-10T04:51:15.629Z,1.10
2019-01-10T04:51:53.566Z,1.10
2019-01-10T04:52:31.379Z,1.10
2019-01-10T04:53:08.681Z,1.00
2019-01-10T04:53:46.833Z,1.00
2019-01-10T04:54:24.839Z,1.00
2019-01-10T04:55:02.701Z,0.90
2019-01-10T04:55:40.694Z,0.90
2019-01-10T04:56:18.380Z,0.90
2019-01-10T04:56:55.851Z,0.90
2019-01-10T04:57:33.457Z,0.90
2019-01-10T04:58:11.213Z,0.90
2019-01-10T04:58:48.679Z,0.80
2019-01-10T04:59:26.102Z,0.80
2019-01-10T05:00:04.279Z,0.70
2019-01-10T05:00:42.086Z,0.70
2019-01-10T05:01:19.735Z,0.70
2019-01-10T05:01:57.267Z,0.70
2019-01-10T05:02:35.062Z,0.70
2019-01-10T05:03:13.131Z,0.60
2019-01-10T05:03:50.572Z,0.60
2019-01-10T05:04:27.951Z,0.60
2019-01-10T05:05:06.334Z,0.60
2019-01-10T05:05:43.715Z,0.50
2019-01-10T05:06:21.340Z,0.60
2019-01-10T05:06:59.001Z,0.50
2019-01-10T05:07:36.763Z,0.50
2019-01-10T05:08:14.873Z,0.50
2019-01-10T05:08:52.762Z,0.50
2019-01-10T05:09:30.569Z,0.50
2019-01-10T05:10:09.847Z,0.40
2019-01-10T05:10:47.751Z,0.40
2019-01-10T05:11:25.129Z,0.40
2019-01-10T05:12:02.314Z,0.50
2019-01-10T05:12:41.642Z,0.50
2019-01-10T05:13:21.057Z,0.50
2019-01-10T05:13:58.627Z,0.50
2019-01-10T05:14:36.551Z,0.40
2019-01-10T05:15:14.932Z,0.40
2019-01-10T05:15:52.495Z,0.50
2019-01-10T05:16:29.971Z,0.50
2019-01-10T05:17:10.457Z,0.50
2019-01-10T05:17:48.200Z,0.50
2019-01-10T05:18:25.829Z,0.50
2019-01-10T05:19:03.681Z,0.40
2019-01-10T05:19:41.266Z,0.40
2019-01-10T05:20:20.883Z,0.40
2019-01-10T05:20:58.772Z,0.40
2019-01-10T05:21:36.261Z,0.30
2019-01-10T05:22:13.975Z,0.30
2019-01-10T05:22:51.900Z,0.30
2019-01-10T05:23:29.002Z,0.30
2019-01-10T05:24:07.120Z,0.30
2019-01-10T05:24:44.803Z,0.30
2019-01-10T05:25:22.802Z,0.30
2019-01-10T05:26:00.487Z,0.20
2019-01-10T05:26:37.554Z,0.30
2019-01-10T05:27:15.601Z,0.20
2019-01-10T05:27:53.399Z,0.30
2019-01-10T05:28:31.528Z,0.30
2019-01-10T05:29:09.213Z,0.20
2019-01-10T05:29:47.138Z,0.20
2019-01-10T05:30:36.412Z,0.20
2019-01-10T05:31:14.471Z,0.30
2019-01-10T05:31:52.184Z,0.20
2019-01-10T05:32:30.484Z,0.20
2019-01-10T05:33:07.749Z,0.20
2019-01-10T05:33:45.647Z,0.20
2019-01-10T05:34:23.275Z,0.20
2019-01-10T05:35:00.603Z,0.20
2019-01-10T05:35:38.629Z,0.20
2019-01-10T05:36:16.257Z,0.20
2019-01-10T05:36:54.176Z,0.20
2019-01-10T05:37:32.225Z,0.20
2019-01-10T05:38:09.945Z,0.20
2019-01-10T05:38:47.667Z,0.20
2019-01-10T05:39:25.367Z,0.20
2019-01-10T05:40:03.383Z,0.20
2019-01-10T05:40:41.012Z,0.20
2019-01-10T05:41:18.683Z,0.20
2019-01-10T05:41:56.405Z,0.20
2019-01-10T05:42:34.377Z,0.20
2019-01-10T05:43:11.833Z,0.10
2019-01-10T05:43:49.947Z,0.10
2019-01-10T05:44:27.760Z,0.10
2019-01-10T05:45:06.878Z,0.10
2019-01-10T05:45:45.028Z,0.10
2019-01-10T05:46:23.061Z,0.10
2019-01-10T05:47:00.590Z,0.10
2019-01-10T05:47:38.077Z,0.10
2019-01-10T05:48:15.248Z,0.10
2019-01-10T05:48:52.724Z,0.10
2019-01-10T05:49:30.354Z,0.10
2019-01-10T05:50:10.444Z,0.10
2019-01-10T05:50:48.520Z,0.10
2019-01-10T05:51:26.252Z,0.10
2019-01-10T05:52:04.049Z,0.00
2019-01-10T05:52:41.778Z,0.10
2019-01-10T05:53:19.811Z,0.00
2019-01-10T05:53:57.160Z,0.00
2019-01-10T05:54:34.870Z,0.00
2019-01-10T05:55:14.894Z,0.00
2019-01-10T05:55:52.620Z,0.00
2019-01-10T05:56:30.050Z,0.00
2019-01-10T05:57:07.528Z,0.00
2019-01-10T05:57:45.330Z,0.00
2019-01-10T05:58:23.350Z,0.00
2019-01-10T05:59:00.888Z,0.00
2019-01-10T05:59:38.604Z,0.00
2019-01-10T06:00:22.620Z,0.00
2019-01-10T06:01:00.194Z,0.00
2019-01-10T06:01:37.602Z,0.00
2019-01-10T06:02:15.350Z,0.00
2019-01-10T06:02:53.072Z,0.10
2019-01-10T06:03:30.778Z,0.10
2019-01-10T06:04:08.728Z,0.10
2019-01-10T06:04:46.198Z,0.10
2019-01-10T06:05:24.090Z,0.10
2019-01-10T06:06:01.639Z,0.10
2019-01-10T06:06:39.684Z,0.10
2019-01-10T06:07:17.776Z,0.10
2019-01-10T06:07:55.634Z,0.10
2019-01-10T06:08:33.050Z,0.10
2019-01-10T06:09:11.377Z,0.10
2019-01-10T06:09:49.396Z,0.10
2019-01-10T06:10:30.503Z,0.10
2019-01-10T06:11:07.984Z,0.10
2019-01-10T06:11:45.712Z,0.00
2019-01-10T06:12:23.300Z,0.00
2019-01-10T06:13:01.315Z,0.00
2019-01-10T06:13:39.340Z,0.10
2019-01-10T06:14:17.410Z,0.10
2019-01-10T06:14:54.772Z,0.10
2019-01-10T06:15:32.596Z,0.10
2019-01-10T06:16:10.207Z,0.10
2019-01-10T06:16:47.740Z,0.10
2019-01-10T06:17:25.731Z,0.10
2019-01-10T06:18:03.953Z,0.20
2019-01-10T06:18:41.977Z,0.10
2019-01-10T06:19:26.695Z,0.20
2019-01-10T06:19:58.873Z,0.20
2019-01-10T06:20:36.691Z,0.20
2019-01-10T06:21:14.681Z,0.20
2019-01-10T06:21:52.806Z,0.30
2019-01-10T06:22:30.332Z,0.30
2019-01-10T06:23:08.256Z,0.30
2019-01-10T06:23:45.676Z,0.30
2019-01-10T06:24:23.705Z,0.40
2019-01-10T06:25:01.096Z,0.40
2019-01-10T06:25:38.240Z,0.40
2019-01-10T06:26:16.283Z,0.40
2019-01-10T06:26:53.320Z,0.40
2019-01-10T06:27:30.820Z,0.50
2019-01-10T06:28:08.548Z,0.50
2019-01-10T06:28:45.469Z,0.50
2019-01-10T06:29:23.060Z,0.50
2019-01-10T06:30:00.304Z,0.50
2019-01-10T06:30:37.705Z,0.50
2019-01-10T06:31:15.329Z,0.50
2019-01-10T06:31:53.024Z,0.50
2019-01-10T06:32:30.832Z,0.50
2019-01-10T06:33:07.872Z,0.50
2019-01-10T06:33:44.867Z,0.50
2019-01-10T06:34:22.816Z,0.50
2019-01-10T06:35:00.308Z,0.50
2019-01-10T06:35:38.020Z,0.50
2019-01-10T06:36:15.738Z,0.60
2019-01-10T06:36:52.969Z,0.60
2019-01-10T06:37:30.130Z,0.60
2019-01-10T06:38:07.749Z,0.60
2019-01-10T06:38:45.180Z,0.70
2019-01-10T06:39:22.853Z,0.70
2019-01-10T06:40:00.564Z,0.70
2019-01-10T06:40:37.312Z,0.70
2019-01-10T06:41:16.917Z,0.70
2019-01-10T06:41:54.360Z,0.70
2019-01-10T06:42:31.791Z,0.80
2019-01-10T06:43:09.476Z,0.70
2019-01-10T06:43:46.652Z,0.70
2019-01-10T06:44:24.450Z,0.70
2019-01-10T06:45:01.839Z,0.70
2019-01-10T06:45:39.902Z,0.70
2019-01-10T06:46:17.529Z,0.70
2019-01-10T06:46:55.509Z,0.70
2019-01-10T06:47:32.606Z,0.70
2019-01-10T06:48:10.663Z,0.70
2019-01-10T06:48:48.319Z,0.70
2019-01-10T06:49:25.676Z,0.80
2019-01-10T06:50:03.684Z,0.70
2019-01-10T06:50:41.166Z,0.70
2019-01-10T06:51:18.541Z,0.70
2019-01-10T06:51:55.952Z,0.70
2019-01-10T06:52:33.908Z,0.80
2019-01-10T06:53:11.896Z,0.70
2019-01-10T06:53:49.612Z,0.70
2019-01-10T06:54:27.701Z,0.70
2019-01-10T06:55:06.303Z,0.70
2019-01-10T06:55:44.000Z,0.80
2019-01-10T06:56:21.774Z,0.80
2019-01-10T06:56:59.164Z,0.80
2019-01-10T06:57:36.662Z,0.80
2019-01-10T06:58:14.797Z,0.80
2019-01-10T06:58:52.504Z,0.80
2019-01-10T06:59:30.292Z,0.80
2019-01-10T07:00:11.297Z,0.80
2019-01-10T07:00:49.357Z,0.80
2019-01-10T07:01:27.367Z,0.80
2019-01-10T07:02:06.982Z,0.80
2019-01-10T07:02:45.240Z,0.80
2019-01-10T07:03:22.619Z,0.80
2019-01-10T07:04:00.224Z,0.80
2019-01-10T07:04:40.703Z,0.90
2019-01-10T07:05:19.072Z,0.80
2019-01-10T07:05:56.744Z,0.80
2019-01-10T07:06:33.802Z,0.80
2019-01-10T07:07:11.703Z,0.80
2019-01-10T07:07:56.191Z,0.80
2019-01-10T07:08:27.944Z,0.80
2019-01-10T07:09:08.421Z,0.80
2019-01-10T07:09:46.077Z,0.80
2019-01-10T07:10:30.786Z,0.80
2019-01-10T07:11:07.876Z,0.90
2019-01-10T07:11:45.607Z,0.90
2019-01-10T07:12:22.882Z,0.90
2019-01-10T07:13:01.017Z,0.90
2019-01-10T07:13:38.866Z,0.90
2019-01-10T07:14:22.386Z,0.90
2019-01-10T07:15:00.614Z,0.90
2019-01-10T07:15:39.340Z,0.90
2019-01-10T07:16:17.566Z,0.90
2019-01-10T07:16:55.272Z,1.00
2019-01-10T07:17:32.954Z,1.00
2019-01-10T07:18:10.751Z,1.00
2019-01-10T07:18:48.120Z,1.00
2019-01-10T07:19:46.590Z,1.00
2019-01-10T07:20:24.272Z,1.00
2019-01-10T07:21:01.752Z,1.00
2019-01-10T07:21:56.431Z,1.00
2019-01-10T07:22:33.952Z,1.00
2019-01-10T07:23:13.232Z,1.00
2019-01-10T07:23:52.610Z,1.00
2019-01-10T07:24:30.672Z,1.00
2019-01-10T07:25:08.232Z,1.10
2019-01-10T07:25:46.092Z,1.00
2019-01-10T07:26:24.526Z,1.00
2019-01-10T07:27:02.096Z,1.00
2019-01-10T07:27:39.991Z,1.00
2019-01-10T07:28:27.608Z,1.00
2019-01-10T07:29:08.422Z,1.00
2019-01-10T07:29:47.155Z,1.00
2019-01-10T07:30:35.447Z,1.00
2019-01-10T07:31:27.629Z,1.00
2019-01-10T07:32:05.508Z,1.00
2019-01-10T07:32:43.303Z,1.00
2019-01-10T07:33:20.777Z,1.10
2019-01-10T07:34:02.977Z,1.10
2019-01-10T07:34:40.504Z,1.10
2019-01-10T07:35:18.173Z,1.10
2019-01-10T07:36:01.882Z,1.10
2019-01-10T07:36:39.578Z,1.10
2019-01-10T07:37:17.548Z,1.10
2019-01-10T07:37:56.522Z,1.10
2019-01-10T07:38:34.653Z,1.10
2019-01-10T07:39:12.562Z,1.10
2019-01-10T07:39:50.006Z,1.20
2019-01-10T07:40:28.535Z,1.10
2019-01-10T07:41:06.398Z,1.10
2019-01-10T07:41:44.029Z,1.10
2019-01-10T07:42:21.457Z,1.10
2019-01-10T07:42:58.726Z,1.10
2019-01-10T07:43:36.390Z,1.10
2019-01-10T07:44:14.392Z,1.10
2019-01-10T07:44:51.737Z,1.10
2019-01-10T07:45:29.993Z,1.10
2019-01-10T07:46:08.118Z,1.10
2019-01-10T07:46:48.180Z,1.10
2019-01-10T07:47:30.621Z,1.10
2019-01-10T07:48:36.778Z,1.10
2019-01-10T07:49:14.132Z,1.00
2019-01-10T07:49:53.424Z,1.10
2019-01-10T07:50:35.676Z,1.10
2019-01-10T07:51:13.553Z,1.10
2019-01-10T07:51:51.373Z,1.10
2019-01-10T07:52:29.823Z,1.10
2019-01-10T07:53:09.244Z,1.10
2019-01-10T07:53:46.712Z,1.10
2019-01-10T07:54:24.117Z,1.10
2019-01-10T07:55:02.747Z,1.10
2019-01-10T07:55:40.916Z,1.10
2019-01-10T07:56:18.023Z,1.10
2019-01-10T07:56:55.484Z,1.10
2019-01-10T07:57:33.102Z,1.10
2019-01-10T07:58:10.321Z,1.10
2019-01-10T07:58:47.694Z,1.10
2019-01-10T07:59:25.264Z,1.10
2019-01-10T08:00:03.075Z,1.10
2019-01-10T08:00:41.276Z,1.10
2019-01-10T08:01:18.998Z,1.20
2019-01-10T08:01:56.460Z,1.10
2019-01-10T08:02:33.676Z,1.10
2019-01-10T08:03:11.680Z,1.10
2019-01-10T08:03:49.244Z,1.10
2019-01-10T08:04:26.504Z,1.10
2019-01-10T08:05:04.208Z,1.10
2019-01-10T08:05:41.342Z,1.10
2019-01-10T08:06:19.366Z,1.10
2019-01-10T08:06:57.260Z,1.20
2019-01-10T08:07:34.912Z,1.20
2019-01-10T08:08:14.331Z,1.20
2019-01-10T08:08:51.686Z,1.20
2019-01-10T08:09:29.119Z,1.10
2019-01-10T08:10:10.748Z,1.20
2019-01-10T08:10:48.272Z,1.20
2019-01-10T08:11:26.100Z,1.20
2019-01-10T08:12:03.859Z,1.20
2019-01-10T08:12:42.096Z,1.20
2019-01-10T08:13:19.985Z,1.20
2019-01-10T08:13:57.920Z,1.20
2019-01-10T08:14:35.647Z,1.20
2019-01-10T08:15:18.670Z,1.20
2019-01-10T08:15:56.313Z,1.20
2019-01-10T08:16:35.376Z,1.20
2019-01-10T08:17:16.208Z,1.20
2019-01-10T08:17:52.578Z,1.20
2019-01-10T08:18:30.628Z,1.30
2019-01-10T08:19:08.243Z,1.30
2019-01-10T08:19:45.684Z,1.30
2019-01-10T08:20:23.208Z,1.30
2019-01-10T08:21:00.908Z,1.30
2019-01-10T08:21:38.404Z,1.40
2019-01-10T08:22:16.114Z,1.40
2019-01-10T08:22:54.172Z,1.40
2019-01-10T08:23:32.236Z,1.40
2019-01-10T08:24:10.184Z,1.40
2019-01-10T08:24:48.549Z,1.40
2019-01-10T08:25:26.068Z,1.40
2019-01-10T08:26:03.555Z,1.40